sensor_id;sensor_type;location;lat;lon;timestamp;P1;durP1;ratioP1;P2;durP2;ratioP2
6280;SDS011;3173;48.204;11.612;2022-08-14T00:01:28;7.40;;;5.60;;
6280;SDS011;3173;48.204;11.612;2022-08-14T00:03:54;8.43;;;6.17;;
6280;SDS011;3173;48.204;11.612;2022-08-14T00:06:20;14.03;;;6.50;;
6280;SDS011;3173;48.204;11.612;2022-08-14T00:08:46;10.63;;;5.97;;
6280;SDS011;3173;48.204;11.612;2022-08-14T00:11:12;15.40;;;5.93;;
6280;SDS011;3173;48.204;11.612;2022-08-14T00:13:38;7.53;;;5.87;;
6280;SDS011;3173;48.204;11.612;2022-08-14T00:16:04;8.40;;;5.80;;
6280;SDS011;3173;48.204;11.612;2022-08-14T00:18:30;8.70;;;6.30;;
6280;SDS011;3173;48.204;11.612;2022-08-14T00:20:56;6.93;;;5.30;;
6280;SDS011;3173;48.204;11.612;2022-08-14T00:23:24;10.03;;;6.10;;
6280;SDS011;3173;48.204;11.612;2022-08-14T00:25:51;12.10;;;7.10;;
6280;SDS011;3173;48.204;11.612;2022-08-14T00:28:17;10.40;;;6.53;;
6280;SDS011;3173;48.204;11.612;2022-08-14T00:30:45;7.80;;;5.87;;
6280;SDS011;3173;48.204;11.612;2022-08-14T00:33:12;8.73;;;5.33;;
6280;SDS011;3173;48.204;11.612;2022-08-14T00:35:38;9.83;;;6.20;;
6280;SDS011;3173;48.204;11.612;2022-08-14T00:38:04;12.70;;;6.20;;
6280;SDS011;3173;48.204;11.612;2022-08-14T00:40:30;9.63;;;6.40;;
6280;SDS011;3173;48.204;11.612;2022-08-14T00:42:56;11.30;;;7.07;;
6280;SDS011;3173;48.204;11.612;2022-08-14T00:45:22;13.47;;;7.10;;
6280;SDS011;3173;48.204;11.612;2022-08-14T00:47:48;14.83;;;6.70;;
6280;SDS011;3173;48.204;11.612;2022-08-14T00:50:16;11.23;;;6.73;;
6280;SDS011;3173;48.204;11.612;2022-08-14T00:52:42;10.97;;;6.60;;
6280;SDS011;3173;48.204;11.612;2022-08-14T00:55:09;9.40;;;7.00;;
6280;SDS011;3173;48.204;11.612;2022-08-14T00:57:36;10.83;;;6.87;;
6280;SDS011;3173;48.204;11.612;2022-08-14T01:00:07;11.50;;;6.07;;
6280;SDS011;3173;48.204;11.612;2022-08-14T01:02:34;13.13;;;6.40;;
6280;SDS011;3173;48.204;11.612;2022-08-14T01:05:01;8.80;;;6.60;;
6280;SDS011;3173;48.204;11.612;2022-08-14T01:07:31;8.00;;;6.70;;
6280;SDS011;3173;48.204;11.612;2022-08-14T01:09:58;7.90;;;6.07;;
6280;SDS011;3173;48.204;11.612;2022-08-14T01:12:29;7.53;;;6.10;;
6280;SDS011;3173;48.204;11.612;2022-08-14T01:14:56;10.30;;;6.30;;
6280;SDS011;3173;48.204;11.612;2022-08-14T01:17:23;7.30;;;5.90;;
6280;SDS011;3173;48.204;11.612;2022-08-14T01:20:09;8.07;;;5.10;;
6280;SDS011;3173;48.204;11.612;2022-08-14T01:22:54;8.10;;;5.80;;
6280;SDS011;3173;48.204;11.612;2022-08-14T01:25:20;8.60;;;6.30;;
6280;SDS011;3173;48.204;11.612;2022-08-14T01:27:46;13.00;;;6.30;;
6280;SDS011;3173;48.204;11.612;2022-08-14T01:30:12;8.43;;;6.73;;
6280;SDS011;3173;48.204;11.612;2022-08-14T01:32:38;9.27;;;6.50;;
6280;SDS011;3173;48.204;11.612;2022-08-14T01:35:05;9.27;;;6.17;;
6280;SDS011;3173;48.204;11.612;2022-08-14T01:37:32;6.77;;;5.43;;
6280;SDS011;3173;48.204;11.612;2022-08-14T01:39:58;6.70;;;5.57;;
6280;SDS011;3173;48.204;11.612;2022-08-14T01:42:25;9.33;;;5.60;;
6280;SDS011;3173;48.204;11.612;2022-08-14T01:44:53;9.40;;;5.37;;
6280;SDS011;3173;48.204;11.612;2022-08-14T01:47:21;9.60;;;5.90;;
6280;SDS011;3173;48.204;11.612;2022-08-14T01:49:47;10.30;;;6.30;;
6280;SDS011;3173;48.204;11.612;2022-08-14T01:52:14;9.60;;;5.80;;
6280;SDS011;3173;48.204;11.612;2022-08-14T01:54:40;6.60;;;5.83;;
6280;SDS011;3173;48.204;11.612;2022-08-14T01:57:06;7.20;;;5.50;;
6280;SDS011;3173;48.204;11.612;2022-08-14T01:59:35;8.20;;;5.60;;
6280;SDS011;3173;48.204;11.612;2022-08-14T02:02:04;7.17;;;5.30;;
6280;SDS011;3173;48.204;11.612;2022-08-14T02:04:36;13.40;;;6.60;;
6280;SDS011;3173;48.204;11.612;2022-08-14T02:07:02;7.97;;;5.47;;
6280;SDS011;3173;48.204;11.612;2022-08-14T02:09:28;8.20;;;6.20;;
6280;SDS011;3173;48.204;11.612;2022-08-14T02:11:59;7.63;;;5.70;;
6280;SDS011;3173;48.204;11.612;2022-08-14T02:14:25;6.60;;;5.50;;
6280;SDS011;3173;48.204;11.612;2022-08-14T02:16:51;6.87;;;5.80;;
6280;SDS011;3173;48.204;11.612;2022-08-14T02:19:22;8.13;;;5.93;;
6280;SDS011;3173;48.204;11.612;2022-08-14T02:21:49;6.80;;;5.10;;
6280;SDS011;3173;48.204;11.612;2022-08-14T02:24:16;7.63;;;5.30;;
6280;SDS011;3173;48.204;11.612;2022-08-14T02:26:44;9.27;;;5.67;;
6280;SDS011;3173;48.204;11.612;2022-08-14T02:29:13;9.90;;;5.70;;
6280;SDS011;3173;48.204;11.612;2022-08-14T02:31:41;8.07;;;5.90;;
6280;SDS011;3173;48.204;11.612;2022-08-14T02:34:09;7.43;;;5.07;;
6280;SDS011;3173;48.204;11.612;2022-08-14T02:36:36;7.53;;;5.10;;
6280;SDS011;3173;48.204;11.612;2022-08-14T02:39:03;13.17;;;6.50;;
6280;SDS011;3173;48.204;11.612;2022-08-14T02:41:29;8.00;;;5.70;;
6280;SDS011;3173;48.204;11.612;2022-08-14T02:43:56;7.67;;;6.30;;
6280;SDS011;3173;48.204;11.612;2022-08-14T02:46:22;8.80;;;5.30;;
6280;SDS011;3173;48.204;11.612;2022-08-14T02:48:48;6.33;;;5.17;;
6280;SDS011;3173;48.204;11.612;2022-08-14T02:51:14;10.93;;;5.77;;
6280;SDS011;3173;48.204;11.612;2022-08-14T02:53:41;6.07;;;5.30;;
6280;SDS011;3173;48.204;11.612;2022-08-14T02:56:08;9.03;;;5.73;;
6280;SDS011;3173;48.204;11.612;2022-08-14T02:58:35;7.23;;;5.63;;
6280;SDS011;3173;48.204;11.612;2022-08-14T03:01:03;7.70;;;5.03;;
6280;SDS011;3173;48.204;11.612;2022-08-14T03:03:29;8.80;;;5.77;;
6280;SDS011;3173;48.204;11.612;2022-08-14T03:05:55;5.83;;;5.03;;
6280;SDS011;3173;48.204;11.612;2022-08-14T03:08:21;7.90;;;4.87;;
6280;SDS011;3173;48.204;11.612;2022-08-14T03:10:48;7.50;;;5.70;;
6280;SDS011;3173;48.204;11.612;2022-08-14T03:13:14;10.63;;;5.80;;
6280;SDS011;3173;48.204;11.612;2022-08-14T03:15:40;8.40;;;6.30;;
6280;SDS011;3173;48.204;11.612;2022-08-14T03:18:17;6.10;;;5.50;;
6280;SDS011;3173;48.204;11.612;2022-08-14T03:20:46;6.10;;;4.97;;
6280;SDS011;3173;48.204;11.612;2022-08-14T03:23:12;6.87;;;5.00;;
6280;SDS011;3173;48.204;11.612;2022-08-14T03:25:38;7.60;;;5.30;;
6280;SDS011;3173;48.204;11.612;2022-08-14T03:28:05;6.07;;;5.40;;
6280;SDS011;3173;48.204;11.612;2022-08-14T03:30:31;5.70;;;5.10;;
6280;SDS011;3173;48.204;11.612;2022-08-14T03:32:57;9.57;;;5.50;;
6280;SDS011;3173;48.204;11.612;2022-08-14T03:35:24;7.67;;;5.50;;
6280;SDS011;3173;48.204;11.612;2022-08-14T03:37:50;6.47;;;5.33;;
6280;SDS011;3173;48.204;11.612;2022-08-14T03:40:18;6.93;;;4.87;;
6280;SDS011;3173;48.204;11.612;2022-08-14T03:42:44;9.03;;;4.30;;
6280;SDS011;3173;48.204;11.612;2022-08-14T03:45:10;7.17;;;4.83;;
6280;SDS011;3173;48.204;11.612;2022-08-14T03:47:36;6.10;;;5.50;;
6280;SDS011;3173;48.204;11.612;2022-08-14T03:50:05;5.93;;;5.33;;
6280;SDS011;3173;48.204;11.612;2022-08-14T03:52:33;9.90;;;5.60;;
6280;SDS011;3173;48.204;11.612;2022-08-14T03:54:59;5.37;;;4.63;;
6280;SDS011;3173;48.204;11.612;2022-08-14T03:57:27;5.30;;;4.80;;
6280;SDS011;3173;48.204;11.612;2022-08-14T03:59:56;6.17;;;5.17;;
6280;SDS011;3173;48.204;11.612;2022-08-14T04:02:22;8.37;;;4.37;;
6280;SDS011;3173;48.204;11.612;2022-08-14T04:04:48;9.43;;;4.93;;
6280;SDS011;3173;48.204;11.612;2022-08-14T04:07:14;6.90;;;4.73;;
6280;SDS011;3173;48.204;11.612;2022-08-14T04:09:41;7.40;;;4.33;;
6280;SDS011;3173;48.204;11.612;2022-08-14T04:12:07;13.20;;;4.83;;
6280;SDS011;3173;48.204;11.612;2022-08-14T04:14:33;7.10;;;4.77;;
6280;SDS011;3173;48.204;11.612;2022-08-14T04:16:59;5.43;;;4.60;;
6280;SDS011;3173;48.204;11.612;2022-08-14T04:19:25;5.20;;;4.53;;
6280;SDS011;3173;48.204;11.612;2022-08-14T04:21:51;5.10;;;4.27;;
6280;SDS011;3173;48.204;11.612;2022-08-14T04:24:17;6.90;;;4.90;;
6280;SDS011;3173;48.204;11.612;2022-08-14T04:26:43;6.53;;;5.13;;
6280;SDS011;3173;48.204;11.612;2022-08-14T04:29:11;4.70;;;4.17;;
6280;SDS011;3173;48.204;11.612;2022-08-14T04:31:37;5.00;;;4.50;;
6280;SDS011;3173;48.204;11.612;2022-08-14T04:34:03;4.90;;;4.27;;
6280;SDS011;3173;48.204;11.612;2022-08-14T04:36:30;12.60;;;4.70;;
6280;SDS011;3173;48.204;11.612;2022-08-14T04:38:56;4.97;;;4.33;;
6280;SDS011;3173;48.204;11.612;2022-08-14T04:41:41;4.43;;;3.77;;
6280;SDS011;3173;48.204;11.612;2022-08-14T04:44:26;6.03;;;4.80;;
6280;SDS011;3173;48.204;11.612;2022-08-14T04:46:51;7.07;;;4.93;;
6280;SDS011;3173;48.204;11.612;2022-08-14T04:49:36;6.03;;;4.17;;
6280;SDS011;3173;48.204;11.612;2022-08-14T04:52:02;6.00;;;4.77;;
6280;SDS011;3173;48.204;11.612;2022-08-14T04:54:28;11.60;;;4.63;;
6280;SDS011;3173;48.204;11.612;2022-08-14T04:56:54;8.07;;;4.90;;
6280;SDS011;3173;48.204;11.612;2022-08-14T04:59:21;4.80;;;3.60;;
6280;SDS011;3173;48.204;11.612;2022-08-14T05:01:48;5.30;;;4.37;;
6280;SDS011;3173;48.204;11.612;2022-08-14T05:04:14;5.60;;;4.13;;
6280;SDS011;3173;48.204;11.612;2022-08-14T05:06:41;7.57;;;4.83;;
6280;SDS011;3173;48.204;11.612;2022-08-14T05:09:07;4.47;;;3.97;;
6280;SDS011;3173;48.204;11.612;2022-08-14T05:11:33;5.03;;;4.50;;
6280;SDS011;3173;48.204;11.612;2022-08-14T05:14:00;7.37;;;4.40;;
6280;SDS011;3173;48.204;11.612;2022-08-14T05:16:26;8.80;;;4.37;;
6280;SDS011;3173;48.204;11.612;2022-08-14T05:18:54;5.93;;;4.20;;
6280;SDS011;3173;48.204;11.612;2022-08-14T05:21:20;5.67;;;4.03;;
6280;SDS011;3173;48.204;11.612;2022-08-14T05:23:46;4.33;;;3.93;;
6280;SDS011;3173;48.204;11.612;2022-08-14T05:26:12;7.13;;;4.63;;
6280;SDS011;3173;48.204;11.612;2022-08-14T05:28:42;5.17;;;4.23;;
6280;SDS011;3173;48.204;11.612;2022-08-14T05:31:10;6.53;;;4.47;;
6280;SDS011;3173;48.204;11.612;2022-08-14T05:33:36;5.50;;;4.00;;
6280;SDS011;3173;48.204;11.612;2022-08-14T05:36:03;5.80;;;4.13;;
6280;SDS011;3173;48.204;11.612;2022-08-14T05:38:31;5.00;;;3.93;;
6280;SDS011;3173;48.204;11.612;2022-08-14T05:41:08;4.57;;;3.63;;
6280;SDS011;3173;48.204;11.612;2022-08-14T05:43:35;5.53;;;3.87;;
6280;SDS011;3173;48.204;11.612;2022-08-14T05:46:01;5.00;;;3.93;;
6280;SDS011;3173;48.204;11.612;2022-08-14T05:48:27;4.13;;;3.63;;
6280;SDS011;3173;48.204;11.612;2022-08-14T05:50:54;6.03;;;3.70;;
6280;SDS011;3173;48.204;11.612;2022-08-14T05:53:21;5.23;;;3.87;;
6280;SDS011;3173;48.204;11.612;2022-08-14T05:55:47;5.33;;;3.50;;
6280;SDS011;3173;48.204;11.612;2022-08-14T05:58:13;4.40;;;3.47;;
6280;SDS011;3173;48.204;11.612;2022-08-14T06:00:40;5.90;;;3.30;;
6280;SDS011;3173;48.204;11.612;2022-08-14T06:03:08;4.33;;;3.40;;
6280;SDS011;3173;48.204;11.612;2022-08-14T06:05:34;10.53;;;3.63;;
6280;SDS011;3173;48.204;11.612;2022-08-14T06:08:00;5.93;;;3.87;;
6280;SDS011;3173;48.204;11.612;2022-08-14T06:10:27;4.60;;;3.60;;
6280;SDS011;3173;48.204;11.612;2022-08-14T06:12:54;3.90;;;3.50;;
6280;SDS011;3173;48.204;11.612;2022-08-14T06:15:20;3.97;;;3.23;;
6280;SDS011;3173;48.204;11.612;2022-08-14T06:17:47;4.03;;;3.30;;
6280;SDS011;3173;48.204;11.612;2022-08-14T06:20:13;3.40;;;2.73;;
6280;SDS011;3173;48.204;11.612;2022-08-14T06:22:41;4.37;;;3.50;;
6280;SDS011;3173;48.204;11.612;2022-08-14T06:25:07;3.57;;;3.20;;
6280;SDS011;3173;48.204;11.612;2022-08-14T06:27:41;6.30;;;3.00;;
6280;SDS011;3173;48.204;11.612;2022-08-14T06:30:09;3.85;;;2.90;;
6280;SDS011;3173;48.204;11.612;2022-08-14T06:32:36;4.00;;;3.07;;
6280;SDS011;3173;48.204;11.612;2022-08-14T06:35:05;3.67;;;2.87;;
6280;SDS011;3173;48.204;11.612;2022-08-14T06:37:44;4.23;;;2.90;;
6280;SDS011;3173;48.204;11.612;2022-08-14T06:40:11;3.57;;;3.23;;
6280;SDS011;3173;48.204;11.612;2022-08-14T06:42:38;3.20;;;2.80;;
6280;SDS011;3173;48.204;11.612;2022-08-14T06:45:04;4.10;;;2.80;;
6280;SDS011;3173;48.204;11.612;2022-08-14T06:47:33;3.80;;;2.77;;
6280;SDS011;3173;48.204;11.612;2022-08-14T06:50:00;4.87;;;3.10;;
6280;SDS011;3173;48.204;11.612;2022-08-14T06:52:26;4.07;;;2.90;;
6280;SDS011;3173;48.204;11.612;2022-08-14T06:54:52;8.10;;;3.00;;
6280;SDS011;3173;48.204;11.612;2022-08-14T06:57:19;6.27;;;3.20;;
6280;SDS011;3173;48.204;11.612;2022-08-14T06:59:45;6.37;;;3.37;;
6280;SDS011;3173;48.204;11.612;2022-08-14T07:02:11;3.13;;;2.67;;
6280;SDS011;3173;48.204;11.612;2022-08-14T07:04:57;5.50;;;3.17;;
6280;SDS011;3173;48.204;11.612;2022-08-14T07:07:42;7.10;;;3.50;;
6280;SDS011;3173;48.204;11.612;2022-08-14T07:10:08;3.13;;;2.63;;
6280;SDS011;3173;48.204;11.612;2022-08-14T07:12:34;4.60;;;2.70;;
6280;SDS011;3173;48.204;11.612;2022-08-14T07:15:01;17.73;;;2.97;;
6280;SDS011;3173;48.204;11.612;2022-08-14T07:17:27;3.00;;;2.70;;
6280;SDS011;3173;48.204;11.612;2022-08-14T07:19:53;6.03;;;2.60;;
6280;SDS011;3173;48.204;11.612;2022-08-14T07:22:19;4.23;;;2.90;;
6280;SDS011;3173;48.204;11.612;2022-08-14T07:24:45;10.03;;;3.10;;
6280;SDS011;3173;48.204;11.612;2022-08-14T07:27:11;4.10;;;2.43;;
6280;SDS011;3173;48.204;11.612;2022-08-14T07:29:37;3.40;;;3.00;;
6280;SDS011;3173;48.204;11.612;2022-08-14T07:32:03;4.17;;;2.73;;
6280;SDS011;3173;48.204;11.612;2022-08-14T07:34:29;3.57;;;2.57;;
6280;SDS011;3173;48.204;11.612;2022-08-14T07:36:55;3.07;;;2.40;;
6280;SDS011;3173;48.204;11.612;2022-08-14T07:39:21;5.13;;;2.80;;
6280;SDS011;3173;48.204;11.612;2022-08-14T07:41:47;3.50;;;2.63;;
6280;SDS011;3173;48.204;11.612;2022-08-14T07:44:13;4.10;;;3.00;;
6280;SDS011;3173;48.204;11.612;2022-08-14T07:46:39;5.83;;;2.40;;
6280;SDS011;3173;48.204;11.612;2022-08-14T07:49:05;6.43;;;2.50;;
6280;SDS011;3173;48.204;11.612;2022-08-14T07:51:34;4.40;;;2.30;;
6280;SDS011;3173;48.204;11.612;2022-08-14T07:54:03;6.70;;;2.20;;
6280;SDS011;3173;48.204;11.612;2022-08-14T07:56:29;3.13;;;2.20;;
6280;SDS011;3173;48.204;11.612;2022-08-14T07:58:56;8.30;;;2.37;;
6280;SDS011;3173;48.204;11.612;2022-08-14T08:01:22;3.57;;;2.87;;
6280;SDS011;3173;48.204;11.612;2022-08-14T08:03:49;2.50;;;2.13;;
6280;SDS011;3173;48.204;11.612;2022-08-14T08:06:16;4.53;;;2.30;;
6280;SDS011;3173;48.204;11.612;2022-08-14T08:08:42;5.10;;;2.63;;
6280;SDS011;3173;48.204;11.612;2022-08-14T08:11:09;4.30;;;2.73;;
6280;SDS011;3173;48.204;11.612;2022-08-14T08:13:36;2.47;;;2.10;;
6280;SDS011;3173;48.204;11.612;2022-08-14T08:16:05;3.10;;;2.53;;
6280;SDS011;3173;48.204;11.612;2022-08-14T08:18:32;3.07;;;2.20;;
6280;SDS011;3173;48.204;11.612;2022-08-14T08:20:58;3.47;;;2.40;;
6280;SDS011;3173;48.204;11.612;2022-08-14T08:23:24;5.23;;;4.00;;
6280;SDS011;3173;48.204;11.612;2022-08-14T08:25:55;4.93;;;2.80;;
6280;SDS011;3173;48.204;11.612;2022-08-14T08:28:23;7.03;;;2.30;;
6280;SDS011;3173;48.204;11.612;2022-08-14T08:30:53;2.40;;;1.97;;
6280;SDS011;3173;48.204;11.612;2022-08-14T08:33:20;3.87;;;2.17;;
6280;SDS011;3173;48.204;11.612;2022-08-14T08:35:47;3.10;;;1.90;;
6280;SDS011;3173;48.204;11.612;2022-08-14T08:38:15;4.00;;;2.60;;
6280;SDS011;3173;48.204;11.612;2022-08-14T08:40:43;4.20;;;2.10;;
6280;SDS011;3173;48.204;11.612;2022-08-14T08:43:22;2.67;;;2.10;;
6280;SDS011;3173;48.204;11.612;2022-08-14T08:45:56;2.33;;;1.67;;
6280;SDS011;3173;48.204;11.612;2022-08-14T08:48:24;2.60;;;1.87;;
6280;SDS011;3173;48.204;11.612;2022-08-14T08:50:57;2.20;;;2.00;;
6280;SDS011;3173;48.204;11.612;2022-08-14T08:53:31;3.23;;;2.13;;
6280;SDS011;3173;48.204;11.612;2022-08-14T08:55:57;4.30;;;1.93;;
6280;SDS011;3173;48.204;11.612;2022-08-14T08:58:23;4.87;;;2.27;;
6280;SDS011;3173;48.204;11.612;2022-08-14T09:00:50;2.30;;;2.00;;
6280;SDS011;3173;48.204;11.612;2022-08-14T09:03:18;2.97;;;2.33;;
6280;SDS011;3173;48.204;11.612;2022-08-14T09:08:18;3.97;;;2.23;;
6280;SDS011;3173;48.204;11.612;2022-08-14T09:10:44;3.33;;;2.47;;
6280;SDS011;3173;48.204;11.612;2022-08-14T09:13:11;2.10;;;1.80;;
6280;SDS011;3173;48.204;11.612;2022-08-14T09:15:39;3.93;;;2.53;;
6280;SDS011;3173;48.204;11.612;2022-08-14T09:18:06;3.50;;;2.30;;
6280;SDS011;3173;48.204;11.612;2022-08-14T09:20:32;3.70;;;2.27;;
6280;SDS011;3173;48.204;11.612;2022-08-14T09:22:58;3.87;;;2.20;;
6280;SDS011;3173;48.204;11.612;2022-08-14T09:25:25;5.50;;;1.93;;
6280;SDS011;3173;48.204;11.612;2022-08-14T09:27:51;8.30;;;2.30;;
6280;SDS011;3173;48.204;11.612;2022-08-14T09:30:17;7.00;;;2.27;;
6280;SDS011;3173;48.204;11.612;2022-08-14T09:33:00;3.37;;;1.93;;
6280;SDS011;3173;48.204;11.612;2022-08-14T09:35:35;2.37;;;2.10;;
6280;SDS011;3173;48.204;11.612;2022-08-14T09:38:10;3.73;;;2.20;;
6280;SDS011;3173;48.204;11.612;2022-08-14T09:40:46;2.00;;;1.80;;
6280;SDS011;3173;48.204;11.612;2022-08-14T09:45:54;3.07;;;2.10;;
6280;SDS011;3173;48.204;11.612;2022-08-14T09:48:23;3.30;;;2.20;;
6280;SDS011;3173;48.204;11.612;2022-08-14T09:50:50;2.60;;;2.10;;
6280;SDS011;3173;48.204;11.612;2022-08-14T09:53:17;4.47;;;1.90;;
6280;SDS011;3173;48.204;11.612;2022-08-14T09:55:57;3.67;;;2.27;;
6280;SDS011;3173;48.204;11.612;2022-08-14T09:58:33;7.13;;;1.87;;
6280;SDS011;3173;48.204;11.612;2022-08-14T10:01:06;2.50;;;1.80;;
6280;SDS011;3173;48.204;11.612;2022-08-14T10:03:33;2.30;;;1.83;;
6280;SDS011;3173;48.204;11.612;2022-08-14T10:06:10;3.07;;;1.90;;
6280;SDS011;3173;48.204;11.612;2022-08-14T10:08:41;4.63;;;1.77;;
6280;SDS011;3173;48.204;11.612;2022-08-14T10:11:14;2.37;;;2.17;;
6280;SDS011;3173;48.204;11.612;2022-08-14T10:13:43;2.77;;;2.00;;
6280;SDS011;3173;48.204;11.612;2022-08-14T10:16:09;2.97;;;2.40;;
6280;SDS011;3173;48.204;11.612;2022-08-14T10:18:35;2.37;;;1.90;;
6280;SDS011;3173;48.204;11.612;2022-08-14T10:21:01;2.23;;;1.87;;
6280;SDS011;3173;48.204;11.612;2022-08-14T10:23:38;4.13;;;2.27;;
6280;SDS011;3173;48.204;11.612;2022-08-14T10:26:07;2.40;;;1.87;;
6280;SDS011;3173;48.204;11.612;2022-08-14T10:28:44;2.73;;;2.00;;
6280;SDS011;3173;48.204;11.612;2022-08-14T10:31:17;7.33;;;2.40;;
6280;SDS011;3173;48.204;11.612;2022-08-14T10:33:43;4.10;;;1.90;;
6280;SDS011;3173;48.204;11.612;2022-08-14T10:36:10;4.10;;;2.17;;
6280;SDS011;3173;48.204;11.612;2022-08-14T10:38:36;2.83;;;1.80;;
6280;SDS011;3173;48.204;11.612;2022-08-14T10:41:12;2.50;;;2.27;;
6280;SDS011;3173;48.204;11.612;2022-08-14T10:43:42;3.40;;;2.50;;
6280;SDS011;3173;48.204;11.612;2022-08-14T10:46:15;4.30;;;2.63;;
6280;SDS011;3173;48.204;11.612;2022-08-14T10:48:54;4.77;;;2.00;;
6280;SDS011;3173;48.204;11.612;2022-08-14T10:51:24;2.60;;;2.10;;
6280;SDS011;3173;48.204;11.612;2022-08-14T10:53:53;3.13;;;2.27;;
6280;SDS011;3173;48.204;11.612;2022-08-14T10:56:27;2.60;;;2.27;;
6280;SDS011;3173;48.204;11.612;2022-08-14T10:58:59;2.83;;;2.33;;
6280;SDS011;3173;48.204;11.612;2022-08-14T11:01:29;2.77;;;2.47;;
6280;SDS011;3173;48.204;11.612;2022-08-14T11:03:55;3.30;;;2.20;;
6280;SDS011;3173;48.204;11.612;2022-08-14T11:06:21;2.93;;;2.33;;
6280;SDS011;3173;48.204;11.612;2022-08-14T11:08:48;5.23;;;2.80;;
6280;SDS011;3173;48.204;11.612;2022-08-14T11:11:16;3.30;;;2.40;;
6280;SDS011;3173;48.204;11.612;2022-08-14T11:13:42;2.83;;;2.53;;
6280;SDS011;3173;48.204;11.612;2022-08-14T11:16:10;5.57;;;2.77;;
6280;SDS011;3173;48.204;11.612;2022-08-14T11:18:36;4.87;;;2.33;;
6280;SDS011;3173;48.204;11.612;2022-08-14T11:21:02;6.10;;;2.20;;
6280;SDS011;3173;48.204;11.612;2022-08-14T11:23:35;3.43;;;2.40;;
6280;SDS011;3173;48.204;11.612;2022-08-14T11:26:03;2.27;;;2.07;;
6280;SDS011;3173;48.204;11.612;2022-08-14T11:28:36;2.83;;;2.63;;
6280;SDS011;3173;48.204;11.612;2022-08-14T11:31:09;4.40;;;2.30;;
6280;SDS011;3173;48.204;11.612;2022-08-14T11:33:38;2.73;;;2.43;;
6280;SDS011;3173;48.204;11.612;2022-08-14T11:36:06;1.90;;;1.70;;
6280;SDS011;3173;48.204;11.612;2022-08-14T11:41:02;3.33;;;2.17;;
6280;SDS011;3173;48.204;11.612;2022-08-14T11:43:29;2.47;;;2.27;;
6280;SDS011;3173;48.204;11.612;2022-08-14T11:45:55;5.27;;;2.07;;
6280;SDS011;3173;48.204;11.612;2022-08-14T11:48:22;3.33;;;2.40;;
6280;SDS011;3173;48.204;11.612;2022-08-14T11:50:50;4.30;;;2.40;;
6280;SDS011;3173;48.204;11.612;2022-08-14T11:53:24;2.27;;;1.80;;
6280;SDS011;3173;48.204;11.612;2022-08-14T11:55:57;4.30;;;2.60;;
6280;SDS011;3173;48.204;11.612;2022-08-14T11:58:27;2.40;;;2.17;;
6280;SDS011;3173;48.204;11.612;2022-08-14T12:00:54;3.50;;;2.33;;
6280;SDS011;3173;48.204;11.612;2022-08-14T12:03:37;2.10;;;1.90;;
6280;SDS011;3173;48.204;11.612;2022-08-14T12:06:10;4.70;;;2.33;;
6280;SDS011;3173;48.204;11.612;2022-08-14T12:08:36;2.63;;;2.10;;
6280;SDS011;3173;48.204;11.612;2022-08-14T12:11:03;2.87;;;2.57;;
6280;SDS011;3173;48.204;11.612;2022-08-14T12:13:30;4.33;;;2.60;;
6280;SDS011;3173;48.204;11.612;2022-08-14T12:16:01;3.03;;;2.03;;
6280;SDS011;3173;48.204;11.612;2022-08-14T12:18:30;3.20;;;2.10;;
6280;SDS011;3173;48.204;11.612;2022-08-14T12:20:58;3.10;;;2.40;;
6280;SDS011;3173;48.204;11.612;2022-08-14T12:23:34;2.43;;;2.10;;
6280;SDS011;3173;48.204;11.612;2022-08-14T12:26:01;2.70;;;2.37;;
6280;SDS011;3173;48.204;11.612;2022-08-14T12:28:28;2.80;;;2.23;;
6280;SDS011;3173;48.204;11.612;2022-08-14T12:30:54;2.43;;;2.20;;
6280;SDS011;3173;48.204;11.612;2022-08-14T12:33:27;3.33;;;2.10;;
6280;SDS011;3173;48.204;11.612;2022-08-14T12:35:55;3.73;;;2.80;;
6280;SDS011;3173;48.204;11.612;2022-08-14T12:38:38;2.87;;;2.27;;
6280;SDS011;3173;48.204;11.612;2022-08-14T12:41:10;6.10;;;2.33;;
6280;SDS011;3173;48.204;11.612;2022-08-14T12:43:43;3.03;;;2.10;;
6280;SDS011;3173;48.204;11.612;2022-08-14T12:46:19;2.60;;;1.83;;
6280;SDS011;3173;48.204;11.612;2022-08-14T12:48:46;4.17;;;2.50;;
6280;SDS011;3173;48.204;11.612;2022-08-14T12:51:19;2.93;;;2.63;;
6280;SDS011;3173;48.204;11.612;2022-08-14T12:53:46;2.60;;;2.40;;
6280;SDS011;3173;48.204;11.612;2022-08-14T12:56:15;6.33;;;3.23;;
6280;SDS011;3173;48.204;11.612;2022-08-14T12:58:45;2.60;;;2.40;;
6280;SDS011;3173;48.204;11.612;2022-08-14T13:01:17;7.27;;;2.10;;
6280;SDS011;3173;48.204;11.612;2022-08-14T13:03:43;3.57;;;3.07;;
6280;SDS011;3173;48.204;11.612;2022-08-14T13:06:10;2.60;;;2.20;;
6280;SDS011;3173;48.204;11.612;2022-08-14T13:08:38;3.20;;;2.27;;
6280;SDS011;3173;48.204;11.612;2022-08-14T13:11:09;3.70;;;2.50;;
6280;SDS011;3173;48.204;11.612;2022-08-14T13:13:36;4.30;;;2.50;;
6280;SDS011;3173;48.204;11.612;2022-08-14T13:16:03;3.67;;;2.00;;
6280;SDS011;3173;48.204;11.612;2022-08-14T13:18:30;2.60;;;2.33;;
6280;SDS011;3173;48.204;11.612;2022-08-14T13:20:57;3.00;;;2.13;;
6280;SDS011;3173;48.204;11.612;2022-08-14T13:23:25;2.27;;;2.00;;
6280;SDS011;3173;48.204;11.612;2022-08-14T13:25:52;2.33;;;2.13;;
6280;SDS011;3173;48.204;11.612;2022-08-14T13:28:19;7.93;;;2.40;;
6280;SDS011;3173;48.204;11.612;2022-08-14T13:30:50;3.33;;;2.30;;
6280;SDS011;3173;48.204;11.612;2022-08-14T13:33:17;3.47;;;2.37;;
6280;SDS011;3173;48.204;11.612;2022-08-14T13:35:47;3.27;;;2.60;;
6280;SDS011;3173;48.204;11.612;2022-08-14T13:38:16;2.50;;;2.30;;
6280;SDS011;3173;48.204;11.612;2022-08-14T13:40:44;2.43;;;2.23;;
6280;SDS011;3173;48.204;11.612;2022-08-14T13:43:11;3.27;;;2.40;;
6280;SDS011;3173;48.204;11.612;2022-08-14T13:45:37;1.60;;;1.50;;
6280;SDS011;3173;48.204;11.612;2022-08-14T13:48:03;3.23;;;2.60;;
6280;SDS011;3173;48.204;11.612;2022-08-14T13:50:30;2.57;;;2.30;;
6280;SDS011;3173;48.204;11.612;2022-08-14T13:52:56;4.93;;;1.93;;
6280;SDS011;3173;48.204;11.612;2022-08-14T13:55:25;3.30;;;3.00;;
6280;SDS011;3173;48.204;11.612;2022-08-14T13:57:52;2.77;;;2.20;;
6280;SDS011;3173;48.204;11.612;2022-08-14T14:00:20;3.13;;;2.00;;
6280;SDS011;3173;48.204;11.612;2022-08-14T14:02:46;4.63;;;2.67;;
6280;SDS011;3173;48.204;11.612;2022-08-14T14:05:13;2.40;;;2.20;;
6280;SDS011;3173;48.204;11.612;2022-08-14T14:07:42;2.70;;;2.37;;
6280;SDS011;3173;48.204;11.612;2022-08-14T14:10:10;3.60;;;2.03;;
6280;SDS011;3173;48.204;11.612;2022-08-14T14:12:37;2.87;;;1.93;;
6280;SDS011;3173;48.204;11.612;2022-08-14T14:15:06;2.13;;;1.90;;
6280;SDS011;3173;48.204;11.612;2022-08-14T14:17:36;4.00;;;2.00;;
6280;SDS011;3173;48.204;11.612;2022-08-14T14:20:03;3.67;;;2.37;;
6280;SDS011;3173;48.204;11.612;2022-08-14T14:22:30;4.27;;;2.47;;
6280;SDS011;3173;48.204;11.612;2022-08-14T14:24:56;2.53;;;2.23;;
6280;SDS011;3173;48.204;11.612;2022-08-14T14:27:23;3.10;;;2.20;;
6280;SDS011;3173;48.204;11.612;2022-08-14T14:29:51;4.83;;;2.40;;
6280;SDS011;3173;48.204;11.612;2022-08-14T14:32:17;3.43;;;2.10;;
6280;SDS011;3173;48.204;11.612;2022-08-14T14:34:43;4.30;;;2.33;;
6280;SDS011;3173;48.204;11.612;2022-08-14T14:37:09;4.17;;;2.10;;
6280;SDS011;3173;48.204;11.612;2022-08-14T14:39:36;3.87;;;2.57;;
6280;SDS011;3173;48.204;11.612;2022-08-14T14:42:02;2.53;;;2.07;;
6280;SDS011;3173;48.204;11.612;2022-08-14T14:44:38;3.40;;;2.90;;
6280;SDS011;3173;48.204;11.612;2022-08-14T14:47:06;4.67;;;2.90;;
6280;SDS011;3173;48.204;11.612;2022-08-14T14:49:32;3.40;;;2.87;;
6280;SDS011;3173;48.204;11.612;2022-08-14T14:51:58;2.30;;;1.80;;
6280;SDS011;3173;48.204;11.612;2022-08-14T14:54:24;2.83;;;2.13;;
6280;SDS011;3173;48.204;11.612;2022-08-14T14:56:51;2.50;;;2.30;;
6280;SDS011;3173;48.204;11.612;2022-08-14T14:59:18;3.23;;;2.47;;
6280;SDS011;3173;48.204;11.612;2022-08-14T15:01:46;2.00;;;1.80;;
6280;SDS011;3173;48.204;11.612;2022-08-14T15:04:12;2.77;;;2.10;;
6280;SDS011;3173;48.204;11.612;2022-08-14T15:06:39;3.60;;;2.50;;
6280;SDS011;3173;48.204;11.612;2022-08-14T15:09:06;3.40;;;2.30;;
6280;SDS011;3173;48.204;11.612;2022-08-14T15:11:33;3.40;;;2.47;;
6280;SDS011;3173;48.204;11.612;2022-08-14T15:13:58;4.10;;;2.47;;